Terminal Aerodrome Forecast
Issued by NWS

Home | Current Version | Previous Version | Text Only | Print | Product List | Glossary On
Versions: 1 2 3 4 5 6 7 8 9 10 11 12 13 14
000
FTUS45 KFGZ 201100 RRA
TAFPGA
TAF
KPGA 201144Z 2012/2112 VRB05KT P6SM SCT080 SCT110
     FM210300 VRB03KT P6SM FEW090=

USA.gov is the U.S. government's official web portal to all federal, state and local government web resources and services.